KAHN/AHN METAR and TAF weather

Enter ICAO airport designator
Station Type Date Time Source
KAHN METAR 2021/03/05 18:51 UTC NOAA

KAHN 051851Z 13006KT 10SM CLR 18/M03 A3003 RMK AO2 SLP169 T01781028


Station Type Date Time Source
KAHN Decoded METAR 2021/03/05 18:51 UTC NOAA

ATHENS BEN EPPS AIRPORT, GA, United States (KAHN) 33-57N 083-20W 244M
Mar 05, 2021 - 01:51 PM EST / 2021.03.05 1851 UTC
Wind: from the SE (130 degrees) at 7 MPH (6 KT):0
Visibility: 10 mile(s):0
Sky conditions: clear
Temperature: 64.0 F (17.8 C)
Dew Point: 27.0 F (-2.8 C)
Relative Humidity: 24%
Pressure (altimeter): 30.03 in. Hg (1016 hPa)
ob: KAHN 051851Z 13006KT 10SM CLR 18/M03 A3003 RMK AO2 SLP169 T01781028
cycle: 19

Station Type Date Time Source
KAHN TAF 2021/03/05 18:33 UTC NOAA

TAF KAHN 051730Z 0518/0618 07007KT P6SM FEW250
FM052300 10004KT P6SM BKN150
FM060500 08004KT P6SM BKN060

Example: see airport list